Froid, Montana
Current Conditions -  °F | °C
As of 6:52 AM on Thursday 29 Jan 2015 (Local Time) from KISN Reporting Station
Overcast Overcast  
Wind Chill: 13°   Ceiling: 1200
Heat Index: 22°   Visibility: 10mi
Dew Point: 17°   Wind: 8mph
Humidity: 82%   Direction: 310°NW
Pressure: 30.47"   Gusts: NA
Location:  48.33°N, 104.5°W
Report Text: KISN 291352Z AUTO 31007KT 10SM OVC012 M06/M08 A3047 RMK AO2 SLP348 T10561083
Loading
Personal Weather Stations






























Interactive Weather Map New forecast layout! Learn more

10-Day Weather Forecast

Advertisements
Track Severe Weather on mobile